Time;durP1;ratioP1;P1;durP2;ratioP2;P2;SDS_P1;SDS_P2;PMS_P1;PMS_P2;Temp;Humidity;BMP_temperature;BMP_pressure;BME280_temperature;BME280_humidity;BME280_pressure;Samples;Min_cycle;Max_cycle;Signal;HPM_P1;HPM_P2
2021/12/01 00:01:17;;;;;;;;;;;;;;;26.73;77.35;101018.47;5080096;27;66906;-37
2021/12/01 00:03:47;;;;;;;;;;;;;;;26.72;77.53;101032.97;5078260;27;69504;-35
2021/12/01 00:06:17;;;;;;;;;;;;;;;26.68;77.59;101042.41;5079767;27;66444;-36
2021/12/01 00:08:47;;;;;;;;;;;;;;;26.75;78.50;101042.50;5079464;27;69322;-35
2021/12/01 00:11:17;;;;;;;;;;;;;;;26.86;79.07;101041.19;5078876;27;66275;-35
2021/12/01 00:13:47;;;;;;;;;;;;;;;27.01;79.40;101052.75;5079423;27;71074;-36
2021/12/01 00:16:17;;;;;;;;;;;;;;;27.12;79.20;101054.09;5081855;27;65752;-36
2021/12/01 00:18:47;;;;;;;;;;;;;;;27.11;78.28;101058.66;5076404;27;70027;-36
2021/12/01 00:21:17;;;;;;;;;;;;;;;27.01;76.56;101052.75;5077345;27;65117;-36
2021/12/01 00:23:47;;;;;;;;;;;;;;;26.85;77.27;101064.56;5074515;27;69948;-37
2021/12/01 00:26:17;;;;;;;;;;;;;;;26.94;78.15;101065.28;5076934;27;65405;-38
2021/12/01 00:28:47;;;;;;;;;;;;;;;27.05;78.78;101064.81;5078307;27;70204;-37
2021/12/01 00:31:17;;;;;;;;;;;;;;;27.14;78.79;101079.81;5076278;27;66401;-37
2021/12/01 00:33:47;;;;;;;;;;;;;;;27.22;78.97;101080.75;5074810;27;70507;-38
2021/12/01 00:36:17;;;;;;;;;;;;;;;27.26;77.45;101082.03;5079267;27;67029;-38
2021/12/01 00:38:47;;;;;;;;;;;;;;;27.32;76.60;101092.06;5078890;27;70249;-38
2021/12/01 00:41:21;;;;;;;;;;;;;;;27.36;75.84;101093.34;5078636;27;66297;-38
2021/12/01 00:43:51;;;;;;;;;;;;;;;27.42;75.44;101095.28;5078319;27;70068;-38
2021/12/01 00:46:24;;;;;;;;;;;;;;;27.44;75.06;101093.19;5080229;27;66322;-37
2021/12/01 00:48:54;;;;;;;;;;;;;;;27.49;75.06;101106.94;5088892;27;69216;-35
2021/12/01 00:51:24;;;;;;;;;;;;;;;27.54;74.47;101100.97;5076445;27;65684;-37
2021/12/01 00:53:54;;;;;;;;;;;;;;;27.57;74.38;101100.59;5075239;28;69480;-37
2021/12/01 00:56:24;;;;;;;;;;;;;;;27.59;74.01;101093.97;5075947;27;65755;-37
2021/12/01 00:58:54;;;;;;;;;;;;;;;27.63;74.03;101094.44;5076187;27;70287;-38
2021/12/01 01:01:24;;;;;;;;;;;;;;;27.64;73.77;101098.81;5074306;27;65273;-38
2021/12/01 01:03:54;;;;;;;;;;;;;;;27.68;73.70;101099.25;5074914;27;70172;-37
2021/12/01 01:06:24;;;;;;;;;;;;;;;27.69;73.78;101107.13;5074716;27;65745;-38
2021/12/01 01:08:54;;;;;;;;;;;;;;;27.72;73.33;101109.47;5076503;27;70209;-37
2021/12/01 01:17:01;;;;;;;;;;;;;;;27.78;73.28;101129.41;5075677;27;66489;-36
2021/12/01 01:19:31;;;;;;;;;;;;;;;27.80;72.98;101135.44;5074562;27;69416;-36
2021/12/01 01:22:01;;;;;;;;;;;;;;;27.80;73.03;101138.16;5075524;27;66832;-37
2021/12/01 01:24:33;;;;;;;;;;;;;;;27.82;73.15;101136.09;5074816;27;69968;-37
2021/12/01 01:27:03;;;;;;;;;;;;;;;27.82;72.91;101136.09;5075720;27;66863;-37
2021/12/01 01:29:36;;;;;;;;;;;;;;;27.84;72.81;101137.56;5071275;27;70935;-38
2021/12/01 01:32:06;;;;;;;;;;;;;;;27.87;72.94;101136.34;5075592;27;65760;-38
2021/12/01 01:34:36;;;;;;;;;;;;;;;27.88;73.15;101132.63;5073567;27;70313;-37
2021/12/01 01:37:06;;;;;;;;;;;;;;;27.90;72.72;101140.53;5075083;27;66732;-39
2021/12/01 01:39:36;;;;;;;;;;;;;;;27.91;73.23;101134.94;5074107;27;69982;-36
2021/12/01 01:42:06;;;;;;;;;;;;;;;27.93;72.76;101143.66;5075189;27;66724;-37
2021/12/01 01:44:36;;;;;;;;;;;;;;;27.95;72.68;101146.19;5073845;27;70697;-36
2021/12/01 01:47:06;;;;;;;;;;;;;;;27.96;72.72;101137.88;5075450;27;66611;-37
2021/12/01 01:49:48;;;;;;;;;;;;;;;27.97;72.90;101128.78;5073880;27;69533;-37
2021/12/01 01:52:18;;;;;;;;;;;;;;;27.99;72.71;101137.50;5063843;27;67028;-37
2021/12/01 01:54:48;;;;;;;;;;;;;;;28.00;72.64;101139.19;5073088;27;70188;-37
2021/12/01 01:57:18;;;;;;;;;;;;;;;28.01;72.55;101140.84;5071001;27;66466;-37
2021/12/01 01:59:48;;;;;;;;;;;;;;;28.02;72.66;101137.09;5074323;27;69573;-37
2021/12/01 02:02:18;;;;;;;;;;;;;;;28.03;72.69;101136.09;5073654;27;66390;-38
2021/12/01 02:04:48;;;;;;;;;;;;;;;28.04;72.59;101137.75;5071950;27;70160;-37
2021/12/01 02:07:18;;;;;;;;;;;;;;;28.05;72.78;101134.03;5073833;27;67274;-37
2021/12/01 02:09:48;;;;;;;;;;;;;;;28.06;72.58;101127.59;5073605;27;69682;-37
2021/12/01 02:12:18;;;;;;;;;;;;;;;28.07;72.53;101131.97;5074126;27;66768;-37
2021/12/01 02:14:48;;;;;;;;;;;;;;;28.10;72.58;101124.50;5073891;27;69155;-38
2021/12/01 02:17:18;;;;;;;;;;;;;;;28.12;72.56;101125.16;5074091;27;66522;-36
2021/12/01 02:19:51;;;;;;;;;;;;;;;28.13;72.57;101124.13;5072618;27;69419;-37
2021/12/01 02:22:21;;;;;;;;;;;;;;;28.15;72.38;101132.84;5074969;27;66432;-37
2021/12/01 02:24:51;;;;;;;;;;;;;;;28.15;72.11;101136.38;5072461;27;70257;-37
2021/12/01 02:27:21;;;;;;;;;;;;;;;28.17;72.14;101137.03;5074120;27;67535;-37
2021/12/01 02:29:51;;;;;;;;;;;;;;;28.19;71.75;101142.22;5074624;27;70683;-37
2021/12/01 02:32:21;;;;;;;;;;;;;;;28.19;72.19;101131.41;5074373;27;66374;-36
2021/12/01 02:34:51;;;;;;;;;;;;;;;28.22;71.69;101131.03;5073252;27;69585;-37
2021/12/01 02:37:21;;;;;;;;;;;;;;;28.22;72.02;101129.19;5074040;27;66209;-38
2021/12/01 02:39:52;;;;;;;;;;;;;;;28.25;72.01;101136.03;5074973;27;70492;-37
2021/12/01 02:42:22;;;;;;;;;;;;;;;28.26;71.71;101132.31;5076017;27;66587;-36
2021/12/01 02:44:52;;;;;;;;;;;;;;;28.27;71.56;101133.97;5079051;27;70050;-37
2021/12/01 02:47:26;;;;;;;;;;;;;;;28.29;71.81;101142.72;5076274;27;65658;-36
2021/12/01 02:49:56;;;;;;;;;;;;;;;28.31;71.68;101145.22;5060507;28;68987;-37
2021/12/01 02:52:26;;;;;;;;;;;;;;;28.32;71.49;101145.00;5077953;27;66840;-37
2021/12/01 02:54:56;;;;;;;;;;;;;;;28.34;71.58;101139.44;5076678;27;70078;-36
2021/12/01 02:57:27;;;;;;;;;;;;;;;28.35;71.29;101141.09;5077035;27;67001;-37
2021/12/01 02:59:57;;;;;;;;;;;;;;;28.37;71.25;101150.66;5078110;27;70100;-37
2021/12/01 03:02:27;;;;;;;;;;;;;;;28.40;71.39;101146.72;5075029;27;66578;-37
2021/12/01 03:04:59;;;;;;;;;;;;;;;28.42;71.39;101144.69;5078405;27;70280;-38
2021/12/01 03:07:30;;;;;;;;;;;;;;;28.43;71.48;101144.50;5075217;27;66130;-38
2021/12/01 03:10:02;;;;;;;;;;;;;;;28.46;71.41;101137.88;5076237;27;69961;-36
2021/12/01 03:12:35;;;;;;;;;;;;;;;28.47;71.18;101135.00;5076474;27;67619;-37
2021/12/01 03:15:08;;;;;;;;;;;;;;;28.49;71.05;101134.78;5078039;27;70075;-38
2021/12/01 03:17:38;;;;;;;;;;;;;;;28.50;71.30;101129.19;5076419;27;66186;-37
2021/12/01 03:20:10;;;;;;;;;;;;;;;28.51;70.95;101120.06;5077950;27;69435;-38
2021/12/01 03:22:41;;;;;;;;;;;;;;;28.54;70.72;101123.41;5074403;27;66491;-37
2021/12/01 03:25:13;;;;;;;;;;;;;;;28.57;71.33;101117.59;5078332;27;70281;-37
2021/12/01 03:27:43;;;;;;;;;;;;;;;28.58;70.85;101119.25;5058199;27;65139;-38
2021/12/01 03:30:14;;;;;;;;;;;;;;;28.47;70.83;101105.31;5074636;27;70296;-36
2021/12/01 03:32:44;;;;;;;;;;;;;;;28.62;70.90;101112.44;5076276;27;66715;-37
2021/12/01 03:35:14;;;;;;;;;;;;;;;28.64;71.27;101113.91;5077661;27;69689;-37
2021/12/01 03:37:45;;;;;;;;;;;;;;;28.67;71.17;101118.09;5072564;27;65959;-37
2021/12/01 03:40:15;;;;;;;;;;;;;;;28.69;70.74;101105.19;5077856;27;68839;-37
2021/12/01 03:42:45;;;;;;;;;;;;;;;28.70;71.11;101101.47;5076125;27;66090;-37
2021/12/01 03:45:15;;;;;;;;;;;;;;;28.73;70.66;101101.91;5075237;27;70290;-37
2021/12/01 03:47:45;;;;;;;;;;;;;;;28.75;71.01;101104.38;5077678;27;65984;-38
2021/12/01 03:50:15;;;;;;;;;;;;;;;28.77;71.02;101094.22;5076398;27;69458;-37
2021/12/01 03:52:45;;;;;;;;;;;;;;;28.80;70.80;101091.13;5072819;27;65172;-36
2021/12/01 03:55:15;;;;;;;;;;;;;;;28.82;70.83;101089.06;5077260;27;69837;-36
2021/12/01 03:57:46;;;;;;;;;;;;;;;28.84;70.81;101086.19;5076180;27;65828;-37
2021/12/01 04:00:17;;;;;;;;;;;;;;;28.86;70.34;101082.25;5075257;27;70648;-36
2021/12/01 04:02:47;;;;;;;;;;;;;;;28.89;70.26;101084.53;5075840;27;65779;-37
2021/12/01 04:05:18;;;;;;;;;;;;;;;28.91;70.27;101087.84;5077043;27;70298;-37
2021/12/01 04:07:48;;;;;;;;;;;;;;;28.92;70.82;101084.13;5072601;27;66259;-37
2021/12/01 04:10:18;;;;;;;;;;;;;;;28.96;70.14;101085.38;5076604;27;70444;-38
2021/12/01 04:12:48;;;;;;;;;;;;;;;28.99;70.27;101076.03;5061937;27;65431;-37
2021/12/01 04:15:18;;;;;;;;;;;;;;;29.03;70.60;101073.75;5073474;28;69752;-37
2021/12/01 04:17:48;;;;;;;;;;;;;;;29.05;70.42;101067.16;5076102;27;65282;-38
2021/12/01 04:20:18;;;;;;;;;;;;;;;29.07;70.01;101061.56;5076894;27;70317;-38
2021/12/01 04:22:49;;;;;;;;;;;;;;;29.11;70.16;101060.09;5055022;28;66373;-38
2021/12/01 04:25:19;;;;;;;;;;;;;;;29.13;70.54;101052.63;5077009;27;70446;-37
2021/12/01 04:27:49;;;;;;;;;;;;;;;29.16;69.96;101047.63;5076793;27;66619;-38
2021/12/01 04:30:22;;;;;;;;;;;;;;;29.19;70.45;101046.41;5067411;27;70228;-36
2021/12/01 04:32:52;;;;;;;;;;;;;;;29.11;69.86;101022.28;5077874;27;65458;-38
2021/12/01 04:35:25;;;;;;;;;;;;;;;29.26;70.23;101041.84;5076400;27;69689;-37
2021/12/01 04:37:56;;;;;;;;;;;;;;;29.28;70.00;101031.69;5056766;27;66494;-36
2021/12/01 04:40:26;;;;;;;;;;;;;;;29.31;69.83;101022.31;5075578;27;70445;-37
2021/12/01 04:42:56;;;;;;;;;;;;;;;29.22;69.68;101007.34;5075160;27;65572;-36
2021/12/01 04:45:27;;;;;;;;;;;;;;;29.35;70.20;101024.41;5075443;27;69335;-37
2021/12/01 04:47:58;;;;;;;;;;;;;;;29.38;69.81;101018.56;5077411;27;66040;-36
2021/12/01 04:50:28;;;;;;;;;;;;;;;29.41;70.04;101017.34;5085970;27;69311;-37
2021/12/01 04:52:58;;;;;;;;;;;;;;;29.35;70.05;101001.97;5075129;27;66440;-38
2021/12/01 04:55:28;;;;;;;;;;;;;;;29.44;69.79;101005.28;5076375;27;70817;-37
2021/12/01 04:57:58;;;;;;;;;;;;;;;29.47;69.72;101010.28;5074734;27;66311;-37
2021/12/01 05:00:28;;;;;;;;;;;;;;;29.48;69.86;101009.25;5076247;27;69515;-38
2021/12/01 05:02:58;;;;;;;;;;;;;;;29.51;70.10;101003.44;5075897;27;65636;-37
2021/12/01 05:05:54;;;;;;;;;;;;;;;29.51;69.67;100992.63;5077042;27;70302;-37
2021/12/01 05:08:24;;;;;;;;;;;;;;;29.54;70.05;100984.09;5076255;27;66347;-37
2021/12/01 05:10:54;;;;;;;;;;;;;;;29.55;69.61;100985.72;5062509;27;70283;-38
2021/12/01 05:13:24;;;;;;;;;;;;;;;29.58;69.50;100982.59;5074765;27;66559;-36
2021/12/01 05:15:54;;;;;;;;;;;;;;;29.60;69.38;100972.44;5076185;27;70279;-37
2021/12/01 05:18:24;;;;;;;;;;;;;;;29.61;69.41;100969.53;5071768;27;66057;-37
2021/12/01 05:20:54;;;;;;;;;;;;;;;29.65;69.36;100969.97;5075386;27;70080;-37
2021/12/01 05:23:24;;;;;;;;;;;;;;;29.65;69.23;100964.56;5075236;27;66369;-37
2021/12/01 05:25:55;;;;;;;;;;;;;;;29.65;69.76;100964.56;5073712;27;70109;-37
2021/12/01 05:28:25;;;;;;;;;;;;;;;29.70;69.11;100961.19;5075052;27;65738;-37
2021/12/01 05:30:55;;;;;;;;;;;;;;;29.71;69.02;100952.91;5075498;27;70127;-37
2021/12/01 05:33:25;;;;;;;;;;;;;;;29.72;69.18;100949.13;5072752;27;66380;-36
2021/12/01 05:35:55;;;;;;;;;;;;;;;29.73;68.95;100948.13;5075906;27;69860;-38
2021/12/01 05:38:25;;;;;;;;;;;;;;;29.76;69.00;100934.19;5074263;27;66806;-37
2021/12/01 05:41:02;;;;;;;;;;;;;;;29.78;69.44;100942.91;5075018;27;70778;-39
2021/12/01 05:43:32;;;;;;;;;;;;;;;29.80;68.91;100929.16;5074005;27;67235;-38
2021/12/01 05:46:02;;;;;;;;;;;;;;;29.81;68.76;100928.13;5075404;27;69943;-37
2021/12/01 05:48:32;;;;;;;;;;;;;;;29.83;68.67;100924.16;5072073;27;66210;-37
2021/12/01 05:51:02;;;;;;;;;;;;;;;29.87;68.83;100913.78;5075355;27;69946;-36
2021/12/01 05:53:32;;;;;;;;;;;;;;;29.89;68.59;100910.84;5073702;27;66449;-37
2021/12/01 05:56:03;;;;;;;;;;;;;;;29.90;68.70;100907.09;5075465;27;69421;-38
2021/12/01 05:58:33;;;;;;;;;;;;;;;29.94;68.95;100892.09;5074379;27;67227;-38
2021/12/01 06:01:10;;;;;;;;;;;;;;;29.96;68.56;100890.03;5073651;27;70300;-37
2021/12/01 06:03:40;;;;;;;;;;;;;;;29.98;68.54;100885.22;5073879;27;65377;-35
2021/12/01 06:06:11;;;;;;;;;;;;;;;29.98;68.46;100872.53;5057063;28;69816;-37
2021/12/01 06:08:42;;;;;;;;;;;;;;;30.01;68.97;100866.69;5071190;27;66931;-37
2021/12/01 06:11:12;;;;;;;;;;;;;;;30.01;68.92;100855.88;5073025;27;70217;-36
2021/12/01 06:13:43;;;;;;;;;;;;;;;30.06;68.34;100858.75;5073801;27;65321;-37
2021/12/01 06:16:14;;;;;;;;;;;;;;;30.09;68.76;100862.91;5061695;27;69328;-37
2021/12/01 06:18:44;;;;;;;;;;;;;;;30.11;68.86;100855.41;5078541;27;66242;-37
2021/12/01 06:21:14;;;;;;;;;;;;;;;30.06;68.82;100841.69;5078175;27;69812;-37
2021/12/01 06:23:44;;;;;;;;;;;;;;;30.14;68.22;100844.13;5077497;27;66426;-37
2021/12/01 06:26:15;;;;;;;;;;;;;;;30.16;68.26;100842.06;5078782;27;69992;-37
2021/12/01 06:28:44;;;;;;;;;;;;;;;30.19;68.63;100829.97;5078940;27;65698;-37
2021/12/01 06:31:14;;;;;;;;;;;;;;;30.21;68.41;100828.72;5057708;28;70423;-37
2021/12/01 06:33:44;;;;;;;;;;;;;;;30.22;68.64;100835.81;5078685;27;66292;-37
2021/12/01 06:36:14;;;;;;;;;;;;;;;30.25;68.56;100826.44;5077725;27;69407;-38
2021/12/01 06:38:45;;;;;;;;;;;;;;;30.27;68.59;100813.50;5043976;28;67377;-37
2021/12/01 06:41:15;;;;;;;;;;;;;;;30.30;68.62;100814.97;5078143;27;68904;-36
2021/12/01 06:43:45;;;;;;;;;;;;;;;30.31;68.18;100812.00;5078745;27;66563;-37
2021/12/01 06:46:15;;;;;;;;;;;;;;;30.31;68.07;100803.91;5076136;27;70687;-38
2021/12/01 06:48:45;;;;;;;;;;;;;;;30.35;68.19;100802.44;5077404;27;66157;-36
2021/12/01 06:51:15;;;;;;;;;;;;;;;30.35;68.36;100804.31;5077051;27;70050;-36
2021/12/01 06:53:45;;;;;;;;;;;;;;;30.38;68.02;100806.59;5076672;27;65665;-37
2021/12/01 06:56:16;;;;;;;;;;;;;;;30.40;68.19;100799.06;5076840;27;70782;-37
2021/12/01 06:58:46;;;;;;;;;;;;;;;30.40;67.97;100796.38;5078707;27;66248;-38
2021/12/01 07:01:16;;;;;;;;;;;;;;;30.42;68.56;100792.41;5076672;27;71911;-37
2021/12/01 07:03:46;;;;;;;;;;;;;;;30.43;68.43;100776.97;5076530;27;66111;-37
2021/12/01 07:06:16;;;;;;;;;;;;;;;30.44;68.57;100773.22;5077960;27;69916;-38
2021/12/01 07:08:46;;;;;;;;;;;;;;;30.44;68.33;100773.22;5059628;28;66608;-37
2021/12/01 07:11:17;;;;;;;;;;;;;;;30.46;68.65;100777.38;5076521;27;70230;-37
2021/12/01 07:13:47;;;;;;;;;;;;;;;30.48;68.28;100766.34;5077552;27;66085;-37
2021/12/01 07:16:17;;;;;;;;;;;;;;;30.50;67.94;100767.75;5077854;27;70886;-37
2021/12/01 07:18:48;;;;;;;;;;;;;;;30.52;68.30;100770.25;5075844;27;66645;-37
2021/12/01 07:21:18;;;;;;;;;;;;;;;30.50;68.03;100765.03;5058339;28;70177;-38
2021/12/01 07:23:48;;;;;;;;;;;;;;;30.56;67.92;100766.03;5075695;27;66785;-36
2021/12/01 07:26:19;;;;;;;;;;;;;;;30.58;68.09;100758.53;5077775;27;70786;-36
2021/12/01 07:28:50;;;;;;;;;;;;;;;30.60;68.09;100752.91;5075342;27;65412;-37
2021/12/01 07:31:20;;;;;;;;;;;;;;;30.62;67.91;100753.50;5077643;27;69358;-37
2021/12/01 07:33:50;;;;;;;;;;;;;;;30.64;67.58;100745.97;5076650;27;66519;-37
2021/12/01 07:36:21;;;;;;;;;;;;;;;30.66;68.15;100750.13;5075649;27;70604;-37
2021/12/01 07:38:53;;;;;;;;;;;;;;;30.68;67.70;100742.63;5077105;27;66796;-37
2021/12/01 07:41:23;;;;;;;;;;;;;;;30.71;68.05;100731.34;5078094;27;70745;-38
2021/12/01 07:43:53;;;;;;;;;;;;;;;30.73;67.95;100731.13;5074989;27;66056;-38
2021/12/01 07:46:23;;;;;;;;;;;;;;;30.77;67.48;100739.63;5077815;27;70133;-38
2021/12/01 07:48:53;;;;;;;;;;;;;;;30.79;67.58;100732.13;5076762;27;66580;-37
2021/12/01 07:51:24;;;;;;;;;;;;;;;30.80;67.50;100741.91;5075694;27;69643;-36
2021/12/01 07:53:55;;;;;;;;;;;;;;;30.81;67.61;100730.84;5076201;27;66293;-37
2021/12/01 07:56:25;;;;;;;;;;;;;;;30.82;67.26;100731.69;5077758;27;70624;-37
2021/12/01 07:58:55;;;;;;;;;;;;;;;30.82;67.75;100727.09;5074338;27;66410;-38
2021/12/01 08:01:26;;;;;;;;;;;;;;;30.86;67.76;100732.91;5077579;27;69126;-36
2021/12/01 08:03:56;;;;;;;;;;;;;;;30.88;67.75;100741.63;5076726;27;65982;-37
2021/12/01 08:06:30;;;;;;;;;;;;;;;30.90;67.66;100743.06;5075210;27;70695;-37
2021/12/01 08:09:01;;;;;;;;;;;;;;;30.92;67.22;100734.69;5075556;27;67034;-37
2021/12/01 08:11:46;;;;;;;;;;;;;;;30.94;67.67;100732.59;5074532;27;69401;-37
2021/12/01 08:14:20;;;;;;;;;;;;;;;30.98;67.30;100735.69;5058684;28;66412;-37
2021/12/01 08:16:54;;;;;;;;;;;;;;;31.00;67.11;100731.69;5076926;27;70328;-37
2021/12/01 08:19:26;;;;;;;;;;;;;;;31.02;67.11;100732.31;5075224;27;66441;-38
2021/12/01 08:21:57;;;;;;;;;;;;;;;31.04;66.77;100724.78;5076650;27;70293;-36
2021/12/01 08:24:28;;;;;;;;;;;;;;;31.07;67.32;100727.06;5073980;27;65558;-37
2021/12/01 08:26:58;;;;;;;;;;;;;;;31.09;66.66;100722.25;5075705;27;70031;-37
2021/12/01 08:29:29;;;;;;;;;;;;;;;31.10;67.17;100723.88;5075996;27;66159;-37
2021/12/01 08:32:01;;;;;;;;;;;;;;;31.13;66.81;100723.44;5074841;27;70096;-37
2021/12/01 08:34:31;;;;;;;;;;;;;;;31.16;66.52;100733.81;5075353;27;66311;-37
2021/12/01 08:37:02;;;;;;;;;;;;;;;31.20;66.96;100733.34;5077157;27;69185;-37
2021/12/01 08:39:32;;;;;;;;;;;;;;;31.21;66.97;100740.47;5072957;27;65734;-37
2021/12/01 08:42:03;;;;;;;;;;;;;;;31.21;66.27;100735.84;5076754;27;70634;-37
2021/12/01 08:44:33;;;;;;;;;;;;;;;31.22;66.87;100752.94;5075775;28;66581;-37
2021/12/01 08:47:04;;;;;;;;;;;;;;;31.24;66.53;100748.13;5074734;27;69993;-37
2021/12/01 08:49:35;;;;;;;;;;;;;;;31.24;66.34;100740.81;5075326;27;66171;-38
2021/12/01 08:52:06;;;;;;;;;;;;;;;31.26;66.42;100741.44;5076493;27;70629;-38
2021/12/01 08:54:37;;;;;;;;;;;;;;;31.28;66.42;100747.44;5073740;27;66105;-37
2021/12/01 08:57:07;;;;;;;;;;;;;;;31.29;66.28;100753.69;5058044;28;69679;-37
2021/12/01 08:59:39;;;;;;;;;;;;;;;31.30;66.39;100755.34;5075457;27;66899;-38
2021/12/01 09:02:10;;;;;;;;;;;;;;;31.32;66.30;100754.06;5061842;27;69069;-38
2021/12/01 09:04:41;;;;;;;;;;;;;;;31.34;65.93;100751.13;5075274;27;65796;-38
2021/12/01 09:07:14;;;;;;;;;;;;;;;31.35;66.07;100747.38;5076009;27;69959;-37
2021/12/01 09:09:55;;;;;;;;;;;;;;;31.37;66.04;100750.69;5075975;27;66145;-37
2021/12/01 09:12:26;;;;;;;;;;;;;;;31.38;65.57;100752.38;5076076;27;69366;-38
2021/12/01 09:14:57;;;;;;;;;;;;;;;31.40;66.07;100755.69;5072236;27;66038;-36
2021/12/01 09:17:28;;;;;;;;;;;;;;;31.40;66.16;100747.56;5075776;27;70019;-38
2021/12/01 09:20:00;;;;;;;;;;;;;;;31.41;65.59;100765.47;5074995;27;66638;-37
2021/12/01 09:22:31;;;;;;;;;;;;;;;31.41;66.12;100765.47;5075992;27;70653;-37
2021/12/01 09:25:01;;;;;;;;;;;;;;;31.42;65.65;100764.41;5074850;27;66776;-37
2021/12/01 09:27:32;;;;;;;;;;;;;;;31.42;65.46;100758.16;5075242;27;69702;-38
2021/12/01 09:30:04;;;;;;;;;;;;;;;31.42;65.56;100758.16;5074389;27;66535;-38
2021/12/01 09:32:37;;;;;;;;;;;;;;;31.42;65.40;100758.97;5074586;27;69407;-38
2021/12/01 09:35:22;;;;;;;;;;;;;;;31.43;65.81;100759.84;5072578;27;65487;-37
2021/12/01 09:38:02;;;;;;;;;;;;;;;31.43;65.62;100771.50;5074288;27;69454;-37
2021/12/01 09:40:33;;;;;;;;;;;;;;;31.43;65.95;100771.50;5073957;27;66790;-37
2021/12/01 09:43:03;;;;;;;;;;;;;;;31.43;65.63;100768.78;5072458;27;69325;-37
2021/12/01 09:45:33;;;;;;;;;;;;;;;31.42;65.29;100758.97;5074252;27;66062;-38
2021/12/01 09:48:07;;;;;;;;;;;;;;;31.42;65.85;100758.16;5069857;27;68682;-38
2021/12/01 09:50:38;;;;;;;;;;;;;;;31.42;65.80;100758.97;5074263;27;67044;-36
2021/12/01 09:53:11;;;;;;;;;;;;;;;31.41;65.45;100757.34;5072979;27;70280;-36
2021/12/01 09:55:43;;;;;;;;;;;;;;;31.41;65.59;100768.16;5075285;27;66723;-37
2021/12/01 09:58:16;;;;;;;;;;;;;;;31.40;65.48;100771.94;5074673;27;69438;-37
2021/12/01 10:00:50;;;;;;;;;;;;;;;31.40;65.67;100777.38;5075190;27;66907;-37
2021/12/01 10:03:22;;;;;;;;;;;;;;;31.39;65.65;100786.53;5058113;27;70453;-37
2021/12/01 10:06:09;;;;;;;;;;;;;;;31.37;65.57;100785.94;5076323;27;66385;-38
2021/12/01 10:08:44;;;;;;;;;;;;;;;31.37;65.73;100794.06;5076245;27;69350;-37
2021/12/01 10:11:29;;;;;;;;;;;;;;;31.36;65.61;100800.53;5074027;27;66424;-37
2021/12/01 10:14:26;;;;;;;;;;;;;;;31.35;65.81;100790.75;5074766;27;70496;-37
2021/12/01 10:17:00;;;;;;;;;;;;;;;31.35;66.19;100804.28;5073956;27;66650;-37
2021/12/01 10:19:34;;;;;;;;;;;;;;;31.33;66.05;100804.50;5074705;27;69409;-37
2021/12/01 10:22:12;;;;;;;;;;;;;;;31.32;66.15;100812.88;5072697;27;66401;-38
2021/12/01 10:24:45;;;;;;;;;;;;;;;31.28;65.52;100812.47;5064230;27;70492;-37
2021/12/01 10:27:19;;;;;;;;;;;;;;;31.28;65.45;100809.75;5072747;27;65676;-38
2021/12/01 10:29:52;;;;;;;;;;;;;;;31.26;65.37;100819.16;5071925;27;70131;-37
2021/12/01 10:32:22;;;;;;;;;;;;;;;31.26;64.92;100824.59;5036652;28;65874;-37
2021/12/01 10:34:58;;;;;;;;;;;;;;;31.28;60.70;100822.50;5072144;27;69500;-37
2021/12/01 10:37:30;;;;;;;;;;;;;;;31.23;58.58;100823.19;5073182;27;66851;-37
2021/12/01 10:40:08;;;;;;;;;;;;;;;31.22;56.80;100828.81;5073456;27;70140;-37
2021/12/01 10:42:50;;;;;;;;;;;;;;;31.19;56.28;100840.09;5069613;27;66459;-37
2021/12/01 10:45:25;;;;;;;;;;;;;;;31.16;56.47;100847.63;5062542;27;69781;-37
2021/12/01 10:47:57;;;;;;;;;;;;;;;31.16;56.14;100847.63;5073210;27;65539;-38
2021/12/01 10:50:29;;;;;;;;;;;;;;;31.17;56.62;100854.72;5074554;27;69863;-38
2021/12/01 10:53:02;;;;;;;;;;;;;;;31.18;56.64;100855.53;5075377;27;66726;-38
2021/12/01 10:55:34;;;;;;;;;;;;;;;31.17;57.19;100859.28;5070786;27;70826;-37
2021/12/01 10:58:05;;;;;;;;;;;;;;;31.20;58.52;100863.44;5075144;27;66781;-37
2021/12/01 11:00:42;;;;;;;;;;;;;;;31.22;59.03;100870.28;5073223;27;69939;-38
2021/12/01 11:03:19;;;;;;;;;;;;;;;31.22;59.45;100873.00;5076573;27;65497;-36
2021/12/01 11:05:55;;;;;;;;;;;;;;;31.22;60.13;100866.75;5074275;27;69895;-36
2021/12/01 11:08:26;;;;;;;;;;;;;;;31.22;60.85;100866.75;5078290;27;66416;-37
2021/12/01 11:11:06;;;;;;;;;;;;;;;31.22;60.71;100872.16;5079418;27;69019;-37
2021/12/01 11:13:37;;;;;;;;;;;;;;;31.21;61.15;100873.22;5076665;27;65499;-36
2021/12/01 11:16:13;;;;;;;;;;;;;;;31.19;61.72;100872.63;5076790;27;69162;-37
2021/12/01 11:18:58;;;;;;;;;;;;;;;31.21;61.78;100875.94;5075294;27;66692;-37
2021/12/01 11:21:30;;;;;;;;;;;;;;;31.20;61.85;100890.53;5073766;27;70891;-36
2021/12/01 11:24:04;;;;;;;;;;;;;;;31.19;61.66;100894.31;5076429;27;66947;-36
2021/12/01 11:26:35;;;;;;;;;;;;;;;31.15;62.11;100889.31;5075321;27;69907;-37
2021/12/01 11:29:21;;;;;;;;;;;;;;;31.14;62.00;100897.66;5077043;27;66375;-37
2021/12/01 11:31:52;;;;;;;;;;;;;;;31.12;62.20;100900.63;5072429;27;68977;-36
2021/12/01 11:34:23;;;;;;;;;;;;;;;31.11;62.71;100909.78;5076847;27;66533;-35
2021/12/01 11:36:53;;;;;;;;;;;;;;;31.09;62.93;100911.03;5073411;27;70357;-36
2021/12/01 11:39:27;;;;;;;;;;;;;;;31.08;62.76;100922.94;5074990;27;66295;-37
2021/12/01 11:41:57;;;;;;;;;;;;;;;31.05;62.25;100932.34;5072931;27;69072;-36
2021/12/01 11:44:30;;;;;;;;;;;;;;;31.03;62.45;100931.72;5074726;27;66178;-37
2021/12/01 11:47:00;;;;;;;;;;;;;;;31.01;63.06;100936.56;5073923;27;70206;-36
2021/12/01 11:49:33;;;;;;;;;;;;;;;31.01;63.07;100947.38;5072854;27;66162;-37
2021/12/01 11:52:04;;;;;;;;;;;;;;;31.00;62.95;100956.53;5075119;27;69636;-36
2021/12/01 11:54:41;;;;;;;;;;;;;;;30.98;62.63;100955.94;5074811;27;66523;-36
2021/12/01 11:57:12;;;;;;;;;;;;;;;30.97;62.89;100951.56;5072288;27;69702;-37
2021/12/01 11:59:48;;;;;;;;;;;;;;;30.94;62.99;100958.25;5075400;27;66601;-37
2021/12/01 12:02:19;;;;;;;;;;;;;;;30.89;58.40;100965.38;5059481;28;70047;-38
2021/12/01 12:04:51;;;;;;;;;;;;;;;30.87;56.87;100975.59;5076738;27;66209;-38
2021/12/01 12:07:28;;;;;;;;;;;;;;;30.83;56.43;100977.09;5077006;27;70143;-38
2021/12/01 12:10:04;;;;;;;;;;;;;;;30.82;56.25;100980.84;5077566;27;66348;-38
2021/12/01 12:12:55;;;;;;;;;;;;;;;30.74;55.14;100979.19;5076681;27;70999;-38
2021/12/01 12:15:35;;;;;;;;;;;;;;;30.70;54.96;100977.94;5069945;27;66285;-38
2021/12/01 12:18:06;;;;;;;;;;;;;;;30.65;53.23;100986.75;5074194;28;69766;-38
2021/12/01 12:20:45;;;;;;;;;;;;;;;30.61;55.00;100982.78;5072424;28;65227;-38
2021/12/01 12:23:18;;;;;;;;;;;;;;;30.64;54.69;100990.47;5071776;27;69225;-36
2021/12/01 12:25:54;;;;;;;;;;;;;;;30.58;53.68;101007.59;5057277;27;66595;-38
2021/12/01 12:28:38;;;;;;;;;;;;;;;30.57;53.87;101011.34;5050696;28;69978;-37
2021/12/01 12:31:20;;;;;;;;;;;;;;;30.56;53.65;101020.50;5075364;27;66390;-37
2021/12/01 12:33:52;;;;;;;;;;;;;;;30.55;52.78;101026.97;5050419;28;70288;-36
2021/12/01 12:36:43;;;;;;;;;;;;;;;30.52;52.69;101035.53;5077567;27;66627;-37
2021/12/01 12:39:13;;;;;;;;;;;;;;;30.52;52.75;101040.94;5069612;27;69216;-35
2021/12/01 12:42:04;;;;;;;;;;;;;;;30.53;53.57;101042.59;5065025;27;67230;-38
2021/12/01 12:44:37;;;;;;;;;;;;;;;30.53;54.06;101048.00;5052932;27;70418;-38
2021/12/01 12:47:52;;;;;;;;;;;;;;;30.37;52.90;101059.28;5057152;28;65929;-37
2021/12/01 12:50:33;;;;;;;;;;;;;;;30.19;54.51;101052.66;5079409;27;69997;-38
2021/12/01 12:53:09;;;;;;;;;;;;;;;30.08;55.10;101063.31;5071661;27;66221;-38
2021/12/01 12:55:55;;;;;;;;;;;;;;;29.97;55.93;101075.59;5075763;27;69782;-39
2021/12/01 12:58:39;;;;;;;;;;;;;;;29.90;58.96;101074.78;5074931;27;66247;-39
2021/12/01 13:01:26;;;;;;;;;;;;;;;29.74;62.29;101066.03;5092692;27;69580;-39
2021/12/01 13:04:08;;;;;;;;;;;;;;;29.76;64.77;101079.34;5077085;27;67036;-41
2021/12/01 13:06:45;;;;;;;;;;;;;;;29.70;66.14;101097.25;5069202;27;70268;-40